Time;durP1;ratioP1;P1;durP2;ratioP2;P2;SDS_P1;SDS_P2;PMS_P1;PMS_P2;Temp;Humidity;BMP_temperature;BMP_pressure;BME280_temperature;BME280_humidity;BME280_pressure;Samples;Min_cycle;Max_cycle;Signal;HPM_P1;HPM_P2
2021/04/10 00:00:37;;;;;;;;;;;;;;;2.22;68.83;102432.70;1935748;74;20145;-80
2021/04/10 00:03:11;;;;;;;;;;;;;;;2.22;68.42;102449.35;1938747;74;20287;-79
2021/04/10 00:05:40;;;;;;;;;;;;;;;2.26;67.58;102448.92;1938240;74;20197;-78
2021/04/10 00:08:08;;;;;;;;;;;;;;;2.33;66.24;102451.43;1938267;74;20125;-79
2021/04/10 00:10:38;;;;;;;;;;;;;;;2.30;66.29;102444.22;1937933;74;21180;-79
2021/04/10 00:13:07;;;;;;;;;;;;;;;2.28;66.75;102439.50;1939643;74;20149;-79
2021/04/10 00:15:35;;;;;;;;;;;;;;;2.29;67.07;102434.81;1938237;74;20169;-79
2021/04/10 00:18:06;;;;;;;;;;;;;;;2.29;67.24;102439.52;1938798;74;20102;-81
2021/04/10 00:20:41;;;;;;;;;;;;;;;2.27;68.64;102433.95;1938897;74;20129;-78
2021/04/10 00:23:09;;;;;;;;;;;;;;;2.30;68.16;102432.23;1939518;74;21449;-79
2021/04/10 00:25:36;;;;;;;;;;;;;;;2.28;67.61;102437.80;1936561;74;20141;-79
2021/04/10 00:28:05;;;;;;;;;;;;;;;2.26;67.45;102435.69;1936654;74;20121;-79
2021/04/10 00:30:32;;;;;;;;;;;;;;;2.21;67.01;102437.39;1936706;74;20133;-78
2021/04/10 00:33:00;;;;;;;;;;;;;;;2.16;66.86;102438.27;1936853;74;20144;-82
2021/04/10 00:35:30;;;;;;;;;;;;;;;2.09;67.08;102434.88;1936759;74;21699;-79
2021/04/10 00:37:58;;;;;;;;;;;;;;;2.02;67.50;102431.91;1936571;74;20479;-78
2021/04/10 00:40:27;;;;;;;;;;;;;;;1.93;67.32;102429.38;1936653;74;20109;-79
2021/04/10 00:42:57;;;;;;;;;;;;;;;1.89;67.20;102426.38;1936614;74;20121;-78
2021/04/10 00:45:24;;;;;;;;;;;;;;;1.86;67.28;102429.81;1936620;74;20487;-79
2021/04/10 00:47:52;;;;;;;;;;;;;;;1.86;67.52;102428.95;1936625;74;21175;-79
2021/04/10 00:50:20;;;;;;;;;;;;;;;1.86;67.63;102418.29;1936470;74;20530;-79
2021/04/10 00:52:47;;;;;;;;;;;;;;;1.86;67.87;102424.69;1936863;74;20101;-79
2021/04/10 00:55:15;;;;;;;;;;;;;;;1.87;67.77;102422.56;1936705;74;20196;-79
2021/04/10 00:57:44;;;;;;;;;;;;;;;1.86;67.77;102421.27;1936788;74;20118;-79
2021/04/10 01:00:13;;;;;;;;;;;;;;;1.84;68.12;102421.30;1938712;74;21754;-79
2021/04/10 01:02:42;;;;;;;;;;;;;;;1.81;68.13;102417.46;1939664;74;20121;-79
2021/04/10 01:05:13;;;;;;;;;;;;;;;1.78;68.42;102414.05;1936018;74;20141;-79
2021/04/10 01:07:41;;;;;;;;;;;;;;;1.73;68.76;102415.33;1936000;74;20484;-79
2021/04/10 01:10:11;;;;;;;;;;;;;;;1.70;69.21;102411.92;1935954;74;20231;-80
2021/04/10 01:12:49;;;;;;;;;;;;;;;1.69;69.55;102411.52;1936046;74;21655;-79
2021/04/10 01:15:23;;;;;;;;;;;;;;;1.69;69.75;102411.09;1935960;74;20114;-79
2021/04/10 01:17:56;;;;;;;;;;;;;;;1.68;69.96;102409.37;1935994;74;20121;-79
2021/04/10 01:20:43;;;;;;;;;;;;;;;1.71;70.34;102411.07;1936036;74;20117;-79
2021/04/10 01:23:18;;;;;;;;;;;;;;;1.70;70.45;102408.08;1936057;74;20133;-79
2021/04/10 01:26:02;;;;;;;;;;;;;;;1.68;70.61;102403.41;1926788;74;21319;-79
2021/04/10 01:28:35;;;;;;;;;;;;;;;1.69;70.58;102411.52;1936118;74;20177;-79
2021/04/10 01:31:02;;;;;;;;;;;;;;;1.66;70.63;102401.28;1926508;74;20098;-79
2021/04/10 01:33:31;;;;;;;;;;;;;;;1.64;70.59;102403.83;1935952;74;20141;-80
2021/04/10 01:36:00;;;;;;;;;;;;;;;1.63;70.60;102409.80;1936153;74;20498;-80
2021/04/10 01:38:29;;;;;;;;;;;;;;;1.61;70.72;102397.44;1936318;74;21117;-79
2021/04/10 01:41:00;;;;;;;;;;;;;;;1.58;70.85;102400.86;1939129;74;20122;-79
2021/04/10 01:43:30;;;;;;;;;;;;;;;1.56;70.92;102393.59;1937227;74;20105;-79
2021/04/10 01:45:58;;;;;;;;;;;;;;;1.54;71.17;102394.04;1935985;74;20118;-79
2021/04/10 01:48:26;;;;;;;;;;;;;;;1.55;71.47;102397.45;1935920;74;20149;-79
2021/04/10 01:50:54;;;;;;;;;;;;;;;1.51;71.72;102394.05;1935853;74;21191;-79
2021/04/10 01:53:24;;;;;;;;;;;;;;;1.49;71.67;102388.09;1936434;74;20129;-79
2021/04/10 01:55:53;;;;;;;;;;;;;;;1.48;71.98;102388.93;1936543;74;20208;-79
2021/04/10 01:58:23;;;;;;;;;;;;;;;1.47;72.10;102389.78;1936492;74;20484;-79
2021/04/10 02:00:51;;;;;;;;;;;;;;;1.46;72.16;102386.81;1936571;74;20121;-79
2021/04/10 02:03:19;;;;;;;;;;;;;;;1.44;72.04;102385.94;1936737;74;21226;-79
2021/04/10 02:05:48;;;;;;;;;;;;;;;1.42;72.07;102391.92;1936504;74;20129;-79
2021/04/10 02:08:32;;;;;;;;;;;;;;;1.39;72.17;102389.36;1935142;74;20221;-79
2021/04/10 02:11:03;;;;;;;;;;;;;;;1.35;72.31;102392.34;1936775;74;20129;-79
2021/04/10 02:13:38;;;;;;;;;;;;;;;1.32;72.61;102393.63;1927122;74;20212;-79
2021/04/10 02:16:07;;;;;;;;;;;;;;;1.28;73.09;102397.45;1937704;74;21177;-80
2021/04/10 02:18:36;;;;;;;;;;;;;;;1.26;73.67;102392.36;1938999;74;20458;-78
2021/04/10 02:21:07;;;;;;;;;;;;;;;1.27;73.42;102402.16;1938334;74;20162;-79
2021/04/10 02:23:41;;;;;;;;;;;;;;;1.25;73.38;102400.02;1936390;74;20408;-79
2021/04/10 02:26:13;;;;;;;;;;;;;;;1.25;73.42;102400.88;1935454;74;20580;-79
2021/04/10 02:28:42;;;;;;;;;;;;;;;1.27;73.89;102399.19;1908427;74;21180;-79
2021/04/10 02:31:17;;;;;;;;;;;;;;;1.29;74.17;102397.47;1936558;74;20118;-78
2021/04/10 02:33:45;;;;;;;;;;;;;;;1.30;74.24;102401.74;1935669;74;20161;-78
2021/04/10 02:36:18;;;;;;;;;;;;;;;1.31;74.34;102396.20;1936651;74;20129;-78
2021/04/10 02:38:46;;;;;;;;;;;;;;;1.34;74.75;102394.92;1936643;74;20531;-78
2021/04/10 02:41:21;;;;;;;;;;;;;;;1.36;75.26;102390.23;1936437;74;21182;-79
2021/04/10 02:43:54;;;;;;;;;;;;;;;1.37;75.39;102394.92;1936278;74;20623;-78
2021/04/10 02:46:26;;;;;;;;;;;;;;;1.36;75.65;102391.51;1936699;74;20134;-78
2021/04/10 02:49:01;;;;;;;;;;;;;;;1.38;75.68;102396.19;1936692;74;20331;-79
2021/04/10 02:51:33;;;;;;;;;;;;;;;1.36;76.00;102390.23;1936308;74;20129;-79
2021/04/10 02:54:02;;;;;;;;;;;;;;;1.33;75.98;102388.09;1936255;74;21125;-78
2021/04/10 02:56:30;;;;;;;;;;;;;;;1.26;75.69;102386.39;1936829;74;20129;-79
2021/04/10 02:59:00;;;;;;;;;;;;;;;1.17;75.71;102389.81;1940326;74;20129;-78
2021/04/10 03:01:31;;;;;;;;;;;;;;;1.10;75.41;102389.80;1937140;74;20121;-78
2021/04/10 03:04:00;;;;;;;;;;;;;;;1.04;75.42;102390.23;1936411;74;20495;-78
2021/04/10 03:06:30;;;;;;;;;;;;;;;1.01;75.52;102392.78;1936334;74;21106;-79
2021/04/10 03:09:00;;;;;;;;;;;;;;;0.98;75.73;102395.34;1936266;74;20129;-79
2021/04/10 03:11:27;;;;;;;;;;;;;;;0.97;76.06;102396.19;1936452;74;20164;-80
2021/04/10 03:13:56;;;;;;;;;;;;;;;0.97;76.62;102394.91;1908460;74;20188;-79
2021/04/10 03:16:30;;;;;;;;;;;;;;;1.00;76.93;102395.33;1936577;74;20183;-79
2021/04/10 03:19:01;;;;;;;;;;;;;;;0.99;76.82;102394.89;1936630;74;20865;-79
2021/04/10 03:21:30;;;;;;;;;;;;;;;1.01;76.91;102394.06;1936394;74;20122;-79
2021/04/10 03:24:00;;;;;;;;;;;;;;;0.99;76.89;102395.75;1935692;74;20145;-79
2021/04/10 03:26:28;;;;;;;;;;;;;;;0.99;76.83;102402.55;1936715;74;20102;-79
2021/04/10 03:28:56;;;;;;;;;;;;;;;0.95;76.54;102403.42;1908625;74;20240;-79
2021/04/10 03:31:27;;;;;;;;;;;;;;;0.88;76.32;102401.70;1936298;74;21626;-80
2021/04/10 03:33:55;;;;;;;;;;;;;;;0.83;76.49;102407.25;1936268;74;20117;-80
2021/04/10 03:36:24;;;;;;;;;;;;;;;0.82;76.73;102409.37;1938712;74;20522;-79
2021/04/10 03:38:52;;;;;;;;;;;;;;;0.79;77.07;102415.33;1939137;74;20137;-79
2021/04/10 03:41:23;;;;;;;;;;;;;;;0.78;77.37;102414.89;1936420;74;20133;-79
2021/04/10 03:43:53;;;;;;;;;;;;;;;0.80;77.67;102405.97;1936617;74;21642;-79
2021/04/10 03:46:21;;;;;;;;;;;;;;;0.80;77.80;102413.63;1936225;74;20122;-79
2021/04/10 03:48:49;;;;;;;;;;;;;;;0.80;78.07;102413.63;1936467;74;20122;-80
2021/04/10 03:51:19;;;;;;;;;;;;;;;0.83;78.34;102412.36;1935405;74;20232;-78
2021/04/10 03:53:48;;;;;;;;;;;;;;;0.85;78.30;102411.51;1935670;74;20140;-79
2021/04/10 03:56:16;;;;;;;;;;;;;;;0.85;78.22;102416.62;1936218;74;21180;-79
2021/04/10 03:58:47;;;;;;;;;;;;;;;0.85;78.46;102411.51;1935973;74;20177;-79
2021/04/10 04:01:16;;;;;;;;;;;;;;;0.90;78.67;102416.61;1934584;74;20518;-79
2021/04/10 04:03:45;;;;;;;;;;;;;;;0.94;78.52;102411.94;1935996;74;20209;-79
2021/04/10 04:06:14;;;;;;;;;;;;;;;0.98;78.37;102417.48;1936122;74;20490;-79
2021/04/10 04:08:41;;;;;;;;;;;;;;;0.99;78.27;102412.36;1935972;74;22219;-79
2021/04/10 04:11:09;;;;;;;;;;;;;;;1.03;78.26;102417.05;1936127;74;20106;-79
2021/04/10 04:13:37;;;;;;;;;;;;;;;1.04;78.41;102413.23;1906314;74;20122;-79
2021/04/10 04:16:04;;;;;;;;;;;;;;;1.06;78.50;102410.66;1939171;74;20102;-79
2021/04/10 04:18:33;;;;;;;;;;;;;;;1.08;78.66;102414.09;1936689;74;20118;-79
2021/04/10 04:21:01;;;;;;;;;;;;;;;1.11;79.12;102415.38;1936172;74;22029;-79
2021/04/10 04:23:29;;;;;;;;;;;;;;;1.19;79.56;102414.94;1935987;74;20197;-79
2021/04/10 04:25:58;;;;;;;;;;;;;;;1.28;79.79;102422.61;1935977;74;20478;-79
2021/04/10 04:28:26;;;;;;;;;;;;;;;1.35;79.79;102421.77;1935937;74;20172;-79
2021/04/10 04:30:57;;;;;;;;;;;;;;;1.43;79.70;102425.61;1935799;74;20141;-79
2021/04/10 04:33:24;;;;;;;;;;;;;;;1.49;79.56;102430.30;1935871;74;21355;-79
2021/04/10 04:35:51;;;;;;;;;;;;;;;1.52;79.59;102418.78;1935811;74;20102;-79
2021/04/10 04:38:19;;;;;;;;;;;;;;;1.58;79.78;102424.31;1936027;74;20141;-79
2021/04/10 04:40:47;;;;;;;;;;;;;;;1.65;80.14;102427.30;1936020;74;20122;-79
2021/04/10 04:43:15;;;;;;;;;;;;;;;1.73;80.30;102428.55;1936160;74;20204;-79
2021/04/10 04:45:42;;;;;;;;;;;;;;;1.79;80.56;102429.39;1936132;74;22198;-79
2021/04/10 04:48:13;;;;;;;;;;;;;;;1.86;80.74;102427.67;1936162;74;20118;-79
2021/04/10 04:50:40;;;;;;;;;;;;;;;1.95;81.08;102430.20;1936133;74;20133;-79
2021/04/10 04:53:08;;;;;;;;;;;;;;;2.04;81.33;102430.21;1931362;74;20102;-77
2021/04/10 04:55:36;;;;;;;;;;;;;;;2.13;81.59;102428.90;1930057;74;20424;-78
2021/04/10 04:58:03;;;;;;;;;;;;;;;2.22;81.81;102433.13;1927901;74;21347;-78
2021/04/10 05:00:31;;;;;;;;;;;;;;;2.31;82.18;102430.53;1927293;74;20234;-79
2021/04/10 05:02:59;;;;;;;;;;;;;;;2.43;82.29;102433.03;1927387;74;20102;-78
2021/04/10 05:05:27;;;;;;;;;;;;;;;2.52;82.33;102434.30;1927380;74;20102;-79
2021/04/10 05:07:55;;;;;;;;;;;;;;;2.61;82.28;102435.53;1927541;74;20196;-78
2021/04/10 05:10:23;;;;;;;;;;;;;;;2.68;82.27;102438.46;1927465;74;22171;-79
2021/04/10 05:12:54;;;;;;;;;;;;;;;2.77;82.41;102438.44;1927221;74;20130;-79
2021/04/10 05:15:21;;;;;;;;;;;;;;;2.89;82.40;102442.63;1927510;74;20127;-79
2021/04/10 05:17:50;;;;;;;;;;;;;;;3.00;82.47;102442.15;1927513;74;20132;-79
2021/04/10 05:20:19;;;;;;;;;;;;;;;3.10;82.35;102441.20;1927491;74;20149;-80
2021/04/10 05:22:51;;;;;;;;;;;;;;;3.23;82.29;102433.84;1927270;74;21186;-80
2021/04/10 05:25:19;;;;;;;;;;;;;;;3.33;82.08;102439.33;1927157;74;20339;-79
2021/04/10 05:27:51;;;;;;;;;;;;;;;3.47;81.73;102436.23;1927321;74;20204;-79
2021/04/10 05:30:19;;;;;;;;;;;;;;;3.59;81.22;102436.11;1927556;74;20137;-79
2021/04/10 05:32:47;;;;;;;;;;;;;;;3.75;80.57;102430.41;1929565;74;20217;-79
2021/04/10 05:35:15;;;;;;;;;;;;;;;3.87;80.09;102429.42;1927753;74;21190;-80
2021/04/10 05:37:43;;;;;;;;;;;;;;;4.01;79.33;102437.84;1927244;74;20627;-80
2021/04/10 05:40:11;;;;;;;;;;;;;;;4.14;78.50;102431.28;1927412;74;20138;-79
2021/04/10 05:42:39;;;;;;;;;;;;;;;4.28;77.71;102431.55;1927283;74;20134;-80
2021/04/10 05:45:08;;;;;;;;;;;;;;;4.39;77.20;102430.55;1927303;74;20141;-79
2021/04/10 05:47:36;;;;;;;;;;;;;;;4.52;76.35;102426.95;1927559;74;21174;-79
2021/04/10 05:50:05;;;;;;;;;;;;;;;4.65;75.61;102433.64;1927273;74;20149;-78
2021/04/10 05:52:34;;;;;;;;;;;;;;;4.78;74.68;102431.75;1929907;74;20121;-79
2021/04/10 05:55:03;;;;;;;;;;;;;;;4.90;73.65;102424.28;1936186;74;20192;-79
2021/04/10 05:57:31;;;;;;;;;;;;;;;5.03;72.88;102422.80;1936110;74;20117;-79
2021/04/10 05:59:58;;;;;;;;;;;;;;;5.20;72.19;102422.55;1936152;74;21177;-79
2021/04/10 06:02:26;;;;;;;;;;;;;;;5.36;70.95;102429.13;1936214;74;20574;-79
2021/04/10 06:04:54;;;;;;;;;;;;;;;5.58;68.11;102424.48;1936117;74;20133;-79
2021/04/10 06:07:21;;;;;;;;;;;;;;;5.88;66.15;102425.24;1905493;74;20224;-80
2021/04/10 06:09:49;;;;;;;;;;;;;;;6.03;65.35;102426.23;1937389;74;20145;-79
2021/04/10 06:12:17;;;;;;;;;;;;;;;6.25;62.92;102424.94;1937044;74;21130;-81
2021/04/10 06:14:45;;;;;;;;;;;;;;;6.57;61.36;102430.75;1936490;74;20502;-81
2021/04/10 06:17:13;;;;;;;;;;;;;;;6.81;60.31;102434.07;1936691;74;20121;-80
2021/04/10 06:19:41;;;;;;;;;;;;;;;6.99;59.78;102431.50;1936387;74;20201;-80
2021/04/10 06:22:10;;;;;;;;;;;;;;;7.13;59.55;102429.90;1931807;74;20122;-80
2021/04/10 06:24:38;;;;;;;;;;;;;;;7.21;59.20;102433.98;1936217;74;21122;-80
2021/04/10 06:27:06;;;;;;;;;;;;;;;7.32;59.28;102434.59;1936314;74;20234;-80
2021/04/10 06:29:33;;;;;;;;;;;;;;;7.41;59.80;102439.52;1936192;74;20492;-79
2021/04/10 06:32:01;;;;;;;;;;;;;;;7.51;60.14;102438.86;1936170;74;20208;-80
2021/04/10 06:34:31;;;;;;;;;;;;;;;7.59;60.14;102438.23;1936270;74;20153;-79
2021/04/10 06:37:00;;;;;;;;;;;;;;;7.70;59.09;102436.64;1937657;74;21186;-80
2021/04/10 06:39:28;;;;;;;;;;;;;;;7.83;58.77;102436.30;1936836;74;20121;-80
2021/04/10 06:41:56;;;;;;;;;;;;;;;7.93;58.09;102437.75;1936393;74;20171;-79
2021/04/10 06:44:24;;;;;;;;;;;;;;;8.11;57.00;102442.00;1936133;74;20118;-80
2021/04/10 06:46:52;;;;;;;;;;;;;;;8.22;55.14;102439.98;1937095;74;20118;-77
2021/04/10 06:49:19;;;;;;;;;;;;;;;8.32;54.20;102441.45;1938522;74;21343;-78
2021/04/10 06:51:47;;;;;;;;;;;;;;;8.40;53.87;102441.63;1937131;74;20140;-78
2021/04/10 06:54:15;;;;;;;;;;;;;;;8.50;54.55;102442.22;1936588;74;20510;-80
2021/04/10 06:56:47;;;;;;;;;;;;;;;8.58;54.20;102445.44;1936415;74;20213;-78
2021/04/10 06:59:17;;;;;;;;;;;;;;;8.66;51.31;102446.05;1936552;74;20125;-78
2021/04/10 07:01:47;;;;;;;;;;;;;;;8.72;48.23;102452.33;1926502;74;22228;-80
2021/04/10 07:04:15;;;;;;;;;;;;;;;8.83;48.88;102453.31;1936751;74;20483;-77
2021/04/10 07:06:43;;;;;;;;;;;;;;;8.92;47.56;102453.89;1936387;74;20490;-78
2021/04/10 07:09:12;;;;;;;;;;;;;;;9.02;48.05;102451.42;1935995;74;20121;-78
2021/04/10 07:11:42;;;;;;;;;;;;;;;9.06;48.00;102459.94;1936206;74;20233;-79
2021/04/10 07:14:09;;;;;;;;;;;;;;;9.16;45.61;102454.03;1936548;74;21343;-79
2021/04/10 07:16:40;;;;;;;;;;;;;;;9.24;43.89;102449.44;1935963;74;20141;-79
2021/04/10 07:19:11;;;;;;;;;;;;;;;9.31;43.64;102449.64;1936028;74;20149;-79
2021/04/10 07:21:39;;;;;;;;;;;;;;;9.27;44.06;102446.30;1936122;74;20554;-80
2021/04/10 07:24:08;;;;;;;;;;;;;;;9.32;44.68;102444.39;1935912;74;20168;-79
2021/04/10 07:26:53;;;;;;;;;;;;;;;9.39;44.21;102448.93;1936584;74;21117;-78
2021/04/10 07:29:38;;;;;;;;;;;;;;;9.47;44.95;102441.33;1936860;74;20137;-79
2021/04/10 07:32:26;;;;;;;;;;;;;;;9.51;43.63;102444.19;1936023;74;20188;-76
2021/04/10 07:34:56;;;;;;;;;;;;;;;9.58;43.03;102442.24;1937063;74;20125;-78
2021/04/10 07:37:41;;;;;;;;;;;;;;;9.67;41.99;102441.11;1936604;74;20475;-78
2021/04/10 07:40:21;;;;;;;;;;;;;;;9.72;41.33;102443.08;1936562;74;20530;-80
2021/04/10 07:42:49;;;;;;;;;;;;;;;9.78;41.53;102436.39;1936312;74;20129;-82
2021/04/10 07:45:26;;;;;;;;;;;;;;;9.87;40.20;102444.69;1936322;74;20134;-79
2021/04/10 07:48:05;;;;;;;;;;;;;;;9.96;39.70;102438.33;1936120;74;20487;-78
2021/04/10 07:50:34;;;;;;;;;;;;;;;9.99;39.44;102436.48;1936607;74;20491;-79
2021/04/10 07:53:24;;;;;;;;;;;;;;;10.13;39.71;102439.03;1933194;74;21173;-78
2021/04/10 07:55:54;;;;;;;;;;;;;;;10.22;40.21;102433.09;1927181;74;20137;-80
2021/04/10 07:58:25;;;;;;;;;;;;;;;10.29;39.82;102428.53;1927119;74;20102;-79
2021/04/10 08:01:01;;;;;;;;;;;;;;;10.35;39.97;102430.90;1927017;74;20122;-78
2021/04/10 08:03:35;;;;;;;;;;;;;;;10.39;39.67;102434.63;1925996;74;20638;-78
2021/04/10 08:06:08;;;;;;;;;;;;;;;10.43;39.38;102430.18;1927852;74;21360;-77
2021/04/10 08:08:56;;;;;;;;;;;;;;;10.50;37.98;102433.77;1928019;74;20209;-77
2021/04/10 08:11:31;;;;;;;;;;;;;;;10.60;36.58;102428.62;1927538;74;20126;-80
2021/04/10 08:14:02;;;;;;;;;;;;;;;10.70;36.90;102426.97;1927512;74;20133;-79
2021/04/10 08:16:30;;;;;;;;;;;;;;;10.83;36.57;102425.59;1927557;74;20298;-78
2021/04/10 08:19:01;;;;;;;;;;;;;;;10.86;34.19;102425.48;1927789;74;22262;-80
2021/04/10 08:21:32;;;;;;;;;;;;;;;10.84;34.42;102413.86;1927792;74;20137;-80
2021/04/10 08:24:01;;;;;;;;;;;;;;;10.82;33.54;102424.75;1927634;74;20145;-79
2021/04/10 08:26:29;;;;;;;;;;;;;;;10.83;34.48;102421.70;1927465;74;20137;-78
2021/04/10 08:28:57;;;;;;;;;;;;;;;10.85;35.06;102422.51;1927249;74;20173;-79
2021/04/10 08:31:24;;;;;;;;;;;;;;;10.94;35.15;102419.55;1927386;74;21170;-77
2021/04/10 08:33:53;;;;;;;;;;;;;;;11.00;34.29;102413.66;1927316;74;20133;-79
2021/04/10 08:36:21;;;;;;;;;;;;;;;11.08;34.83;102405.53;1927336;74;20490;-77
2021/04/10 08:38:49;;;;;;;;;;;;;;;11.13;34.94;102412.70;1927212;74;20122;-81
2021/04/10 08:41:17;;;;;;;;;;;;;;;11.20;33.11;102411.52;1927196;74;20173;-80
2021/04/10 08:43:46;;;;;;;;;;;;;;;11.23;33.41;102400.19;1930029;73;22013;-78
2021/04/10 08:46:17;;;;;;;;;;;;;;;11.22;33.92;102407.13;1929775;74;20126;-78
2021/04/10 08:48:45;;;;;;;;;;;;;;;11.26;34.33;102403.50;1927465;74;20133;-77
2021/04/10 08:51:14;;;;;;;;;;;;;;;11.40;33.23;102401.61;1927510;74;20518;-78
2021/04/10 08:53:46;;;;;;;;;;;;;;;11.52;30.93;102404.54;1934756;74;20207;-79
2021/04/10 08:56:18;;;;;;;;;;;;;;;11.50;31.15;102406.82;1935830;74;21198;-78
2021/04/10 08:58:48;;;;;;;;;;;;;;;11.42;31.64;102398.03;1936323;74;20184;-78
2021/04/10 09:01:23;;;;;;;;;;;;;;;11.42;31.21;102407.13;1936286;74;20212;-77
2021/04/10 09:03:52;;;;;;;;;;;;;;;11.46;31.42;102398.75;1936219;74;20122;-78
2021/04/10 09:06:33;;;;;;;;;;;;;;;11.49;32.95;102393.42;1936378;74;20149;-80
2021/04/10 09:09:20;;;;;;;;;;;;;;;11.59;32.97;102390.83;1936492;74;21179;-77
2021/04/10 09:11:50;;;;;;;;;;;;;;;11.74;33.66;102395.42;1935281;74;20225;-78
2021/04/10 09:14:43;;;;;;;;;;;;;;;11.92;33.73;102397.66;1908888;74;20211;-79
2021/04/10 09:17:14;;;;;;;;;;;;;;;12.04;33.45;102388.86;1936690;74;20571;-78
2021/04/10 09:19:42;;;;;;;;;;;;;;;12.16;32.58;102388.75;1936484;74;20133;-79
2021/04/10 09:22:17;;;;;;;;;;;;;;;12.21;32.56;102385.50;1938417;74;20137;-80
2021/04/10 09:24:47;;;;;;;;;;;;;;;12.27;32.69;102388.28;1939059;74;20157;-82
2021/04/10 09:27:24;;;;;;;;;;;;;;;12.32;32.11;102383.69;1936518;74;20204;-81
2021/04/10 09:30:00;;;;;;;;;;;;;;;12.39;32.29;102380.75;1936305;74;20145;-80
2021/04/10 09:32:37;;;;;;;;;;;;;;;12.45;32.64;102378.31;1936626;74;20148;-79
2021/04/10 09:35:16;;;;;;;;;;;;;;;12.49;33.12;102383.31;1937441;74;21795;-82
2021/04/10 09:37:54;;;;;;;;;;;;;;;12.54;31.35;102374.00;1937154;74;20114;-81
2021/04/10 09:40:45;;;;;;;;;;;;;;;12.61;30.81;102367.11;1936423;74;20122;-78
2021/04/10 09:43:13;;;;;;;;;;;;;;;12.76;31.91;102368.61;1901875;75;20227;-79
2021/04/10 09:45:43;;;;;;;;;;;;;;;12.94;31.85;102370.31;1927484;74;20134;-80
2021/04/10 09:48:14;;;;;;;;;;;;;;;12.99;31.39;102361.34;1936430;74;21401;-82
2021/04/10 09:50:45;;;;;;;;;;;;;;;13.02;31.34;102359.05;1936799;74;20504;-80
2021/04/10 09:53:18;;;;;;;;;;;;;;;13.93;30.87;102360.91;1936249;74;20153;-81
2021/04/10 09:55:49;;;;;;;;;;;;;;;15.30;29.69;102356.22;1936505;74;20494;-78
2021/04/10 09:58:18;;;;;;;;;;;;;;;16.68;27.35;102354.22;1936565;74;20109;-78
2021/04/10 10:00:47;;;;;;;;;;;;;;;17.87;25.58;102351.34;1937632;74;21176;-80
2021/04/10 10:03:17;;;;;;;;;;;;;;;18.60;24.11;102354.02;1938695;74;20415;-83
2021/04/10 10:05:49;;;;;;;;;;;;;;;18.77;23.66;102348.34;1933203;74;20152;-79
2021/04/10 10:08:18;;;;;;;;;;;;;;;19.21;23.28;102347.66;1936511;74;20153;-78
2021/04/10 10:10:48;;;;;;;;;;;;;;;19.73;23.20;102352.91;1936783;74;20141;-79
2021/04/10 10:13:17;;;;;;;;;;;;;;;20.69;22.31;102333.72;1936250;74;22098;-78
2021/04/10 10:15:47;;;;;;;;;;;;;;;21.62;21.21;102338.13;1936444;74;20564;-80
2021/04/10 10:18:27;;;;;;;;;;;;;;;22.30;19.33;102334.41;1936152;74;20531;-80
2021/04/10 10:21:13;;;;;;;;;;;;;;;22.57;17.83;102339.38;1936680;74;20391;-78
2021/04/10 10:23:47;;;;;;;;;;;;;;;22.27;18.17;102338.16;1936452;74;20137;-80
2021/04/10 10:26:16;;;;;;;;;;;;;;;22.04;17.71;102337.55;1936580;74;21184;-77
2021/04/10 10:28:47;;;;;;;;;;;;;;;21.87;18.18;102332.86;1936374;74;20121;-77
2021/04/10 10:31:17;;;;;;;;;;;;;;;22.57;19.13;102323.98;1936433;74;20141;-78
2021/04/10 10:33:44;;;;;;;;;;;;;;;23.50;17.81;102333.45;1936460;74;20605;-78
2021/04/10 10:36:13;;;;;;;;;;;;;;;23.43;16.72;102328.38;1936472;74;20499;-85
2021/04/10 10:38:45;;;;;;;;;;;;;;;22.74;16.87;102327.30;1937542;74;21192;-77
2021/04/10 10:41:16;;;;;;;;;;;;;;;22.76;16.85;102326.66;1939492;74;20133;-79
2021/04/10 10:43:44;;;;;;;;;;;;;;;22.72;16.77;102330.55;1936693;74;20492;-79
2021/04/10 10:46:19;;;;;;;;;;;;;;;23.10;17.08;102325.22;1936439;74;20200;-79
2021/04/10 10:48:47;;;;;;;;;;;;;;;23.61;16.17;102319.52;1936528;74;20188;-81
2021/04/10 10:51:18;;;;;;;;;;;;;;;23.31;15.79;102320.23;1936592;74;21172;-80
2021/04/10 10:53:51;;;;;;;;;;;;;;;23.17;16.03;102310.44;1934426;74;20114;-78
2021/04/10 10:56:21;;;;;;;;;;;;;;;23.15;15.74;102309.75;1927368;74;20115;-81
2021/04/10 10:58:53;;;;;;;;;;;;;;;23.40;16.16;102311.45;1927368;74;20704;-78
2021/04/10 11:01:35;;;;;;;;;;;;;;;23.96;15.89;102302.07;1927624;74;20480;-76
2021/04/10 11:04:09;;;;;;;;;;;;;;;24.27;15.08;102301.27;1927707;74;21334;-83
2021/04/10 11:06:43;;;;;;;;;;;;;;;23.94;15.53;102293.41;1927830;74;20225;-80
2021/04/10 11:09:25;;;;;;;;;;;;;;;23.62;15.22;102288.55;1927563;74;20232;-79
2021/04/10 11:11:59;;;;;;;;;;;;;;;23.13;15.21;102289.70;1927266;74;20141;-79
2021/04/10 11:14:28;;;;;;;;;;;;;;;22.26;15.67;102292.84;1927408;74;20165;-78
2021/04/10 11:16:57;;;;;;;;;;;;;;;22.24;16.33;102284.70;1927701;74;21243;-78
2021/04/10 11:19:39;;;;;;;;;;;;;;;22.57;15.69;102289.09;1930030;74;20134;-80
2021/04/10 11:22:11;;;;;;;;;;;;;;;22.50;16.23;102295.08;1928233;74;20126;-79
2021/04/10 11:24:49;;;;;;;;;;;;;;;21.88;16.10;102294.89;1927610;74;20126;-80
2021/04/10 11:27:22;;;;;;;;;;;;;;;21.12;16.86;102277.39;1928019;74;20169;-86
2021/04/10 11:29:59;;;;;;;;;;;;;;;21.24;16.91;102275.02;1928105;74;21182;-80
2021/04/10 11:32:37;;;;;;;;;;;;;;;21.48;16.84;102272.90;1927667;74;20597;-80
2021/04/10 11:35:25;;;;;;;;;;;;;;;21.61;16.31;102268.23;1927743;74;20137;-80
2021/04/10 11:37:56;;;;;;;;;;;;;;;21.40;16.75;102272.73;1927739;74;20542;-78
2021/04/10 11:40:31;;;;;;;;;;;;;;;21.61;16.37;102269.55;1927852;74;20500;-77
2021/04/10 11:43:03;;;;;;;;;;;;;;;21.22;16.56;102270.37;1927388;73;21450;-79
2021/04/10 11:45:39;;;;;;;;;;;;;;;21.49;16.48;102264.86;1928082;74;20183;-77
2021/04/10 11:48:16;;;;;;;;;;;;;;;21.77;16.56;102255.83;1927802;74;20396;-78
2021/04/10 11:50:55;;;;;;;;;;;;;;;22.22;17.02;102250.45;1927891;74;20133;-81
2021/04/10 11:53:28;;;;;;;;;;;;;;;22.06;15.88;102248.34;1927341;74;20207;-77
2021/04/10 11:55:57;;;;;;;;;;;;;;;22.35;15.84;102246.20;1936112;74;20489;-76
2021/04/10 11:58:34;;;;;;;;;;;;;;;22.79;15.39;102236.38;1938236;74;20101;-76
2021/04/10 12:01:12;;;;;;;;;;;;;;;22.94;15.13;102240.23;1936852;74;20499;-79
2021/04/10 12:04:02;;;;;;;;;;;;;;;22.74;15.19;102236.47;1936261;74;20471;-85
2021/04/10 12:06:40;;;;;;;;;;;;;;;22.80;15.32;102231.44;1936410;74;20133;-79
2021/04/10 12:09:10;;;;;;;;;;;;;;;23.35;15.58;102233.72;1937206;74;22526;-81
2021/04/10 12:11:39;;;;;;;;;;;;;;;23.66;15.11;102227.66;1936149;74;20507;-82
2021/04/10 12:14:09;;;;;;;;;;;;;;;23.83;14.83;102226.86;1935818;74;20141;-80
2021/04/10 12:16:38;;;;;;;;;;;;;;;23.91;14.94;102219.46;1936323;74;20232;-78
2021/04/10 12:19:10;;;;;;;;;;;;;;;24.41;14.02;102218.49;1936516;74;20149;-78
2021/04/10 12:21:38;;;;;;;;;;;;;;;24.23;13.89;102217.16;1936006;73;21184;-77
2021/04/10 12:24:09;;;;;;;;;;;;;;;24.40;14.02;102212.34;1936217;74;20153;-76
2021/04/10 12:26:38;;;;;;;;;;;;;;;25.12;13.18;102213.83;1936070;74;20188;-77
2021/04/10 12:29:06;;;;;;;;;;;;;;;24.87;13.49;102206.23;1935958;74;20132;-79
2021/04/10 12:31:36;;;;;;;;;;;;;;;24.69;13.86;102204.09;1936469;74;20138;-78
2021/04/10 12:34:06;;;;;;;;;;;;;;;24.14;13.51;102204.81;1936261;74;21173;-81
2021/04/10 12:36:35;;;;;;;;;;;;;;;23.23;14.10;102202.27;1938234;74;20141;-79
2021/04/10 12:39:03;;;;;;;;;;;;;;;23.05;14.45;102202.17;1940204;74;20121;-75
2021/04/10 12:41:33;;;;;;;;;;;;;;;23.05;14.80;102203.50;1935958;73;20122;-80
2021/04/10 12:44:02;;;;;;;;;;;;;;;22.85;15.85;102194.77;1936327;74;20204;-77
2021/04/10 12:46:30;;;;;;;;;;;;;;;22.22;16.52;102191.42;1936142;74;21348;-79
2021/04/10 12:48:58;;;;;;;;;;;;;;;21.32;15.80;102198.61;1936276;74;20137;-80
2021/04/10 12:51:27;;;;;;;;;;;;;;;20.35;16.77;102199.01;1936092;74;20479;-77
2021/04/10 12:53:56;;;;;;;;;;;;;;;19.49;17.55;102194.56;1935938;74;20213;-77
2021/04/10 12:56:24;;;;;;;;;;;;;;;19.06;18.51;102190.94;1935954;74;20137;-77
2021/04/10 12:58:52;;;;;;;;;;;;;;;19.20;18.88;102196.45;1936142;74;21164;-77
2021/04/10 13:01:20;;;;;;;;;;;;;;;19.19;18.76;102190.82;1936043;74;20129;-79